createdAt,value
2019-04-21T00:02:05.569Z,8.10
2019-04-21T00:04:48.345Z,8.10
2019-04-21T00:07:29.707Z,8.00
2019-04-21T00:10:10.238Z,7.90
2019-04-21T00:12:35.857Z,7.90
2019-04-21T00:15:02.004Z,7.90
2019-04-21T00:17:24.161Z,7.80
2019-04-21T00:20:11.395Z,7.80
2019-04-21T00:22:41.400Z,7.70
2019-04-21T00:25:21.051Z,7.70
2019-04-21T00:28:03.209Z,7.60
2019-04-21T00:30:40.057Z,7.60
2019-04-21T00:33:04.584Z,7.60
2019-04-21T00:35:29.368Z,7.50
2019-04-21T00:38:18.374Z,7.50
2019-04-21T00:40:53.847Z,7.50
2019-04-21T00:43:26.571Z,7.50
2019-04-21T00:45:52.125Z,7.40
2019-04-21T00:48:36.367Z,7.40
2019-04-21T00:51:21.412Z,7.30
2019-04-21T00:53:51.570Z,7.20
2019-04-21T00:56:34.116Z,7.20
2019-04-21T00:58:59.991Z,7.10
2019-04-21T01:01:26.812Z,7.10
2019-04-21T01:04:04.389Z,7.00
2019-04-21T01:06:35.198Z,6.90
2019-04-21T01:09:09.507Z,6.80
2019-04-21T01:11:44.614Z,6.80
2019-04-21T01:14:12.083Z,6.80
2019-04-21T01:16:56.147Z,6.70
2019-04-21T01:19:32.063Z,6.70
2019-04-21T01:21:36.631Z,6.70
2019-04-21T01:24:13.443Z,6.60
2019-04-21T01:26:48.124Z,6.60
2019-04-21T01:29:35.198Z,6.60
2019-04-21T01:32:12.888Z,6.50
2019-04-21T01:34:39.258Z,6.50
2019-04-21T01:37:04.650Z,6.40
2019-04-21T01:39:42.662Z,6.40
2019-04-21T01:42:08.881Z,6.40
2019-04-21T01:44:44.533Z,6.40
2019-04-21T01:47:10.254Z,6.30
2019-04-21T01:49:41.852Z,6.30
2019-04-21T01:52:26.951Z,6.20
2019-04-21T01:55:12.811Z,6.20
2019-04-21T01:57:46.985Z,6.20
2019-04-21T02:00:13.402Z,6.10
2019-04-21T02:03:04.302Z,6.10
2019-04-21T02:05:37.459Z,6.00
2019-04-21T02:08:09.775Z,6.00
2019-04-21T02:10:51.109Z,5.90
2019-04-21T02:13:11.779Z,6.00
2019-04-21T02:15:52.831Z,5.90
2019-04-21T02:18:14.712Z,5.90
2019-04-21T02:20:41.350Z,5.80
2019-04-21T02:26:09.273Z,5.80
2019-04-21T02:31:22.791Z,5.70
2019-04-21T02:34:00.339Z,5.70
2019-04-21T02:39:08.111Z,5.60
2019-04-21T02:44:42.982Z,5.50
2019-04-21T02:47:16.727Z,5.50
2019-04-21T02:49:45.352Z,5.40
2019-04-21T02:52:13.486Z,5.40
2019-04-21T02:59:50.168Z,5.30
2019-04-21T03:05:05.257Z,5.30
2019-04-21T03:10:11.272Z,5.20
2019-04-21T03:15:25.522Z,5.20
2019-04-21T03:20:19.422Z,5.10
2019-04-21T03:22:53.526Z,5.10
2019-04-21T03:25:33.574Z,5.10
2019-04-21T03:28:04.960Z,5.00
2019-04-21T03:30:55.833Z,5.00
2019-04-21T03:38:06.153Z,5.00
2019-04-21T03:43:12.675Z,4.90
2019-04-21T03:45:42.352Z,4.80
2019-04-21T03:48:30.027Z,4.80
2019-04-21T03:50:50.847Z,4.80
2019-04-21T03:53:26.627Z,4.80
2019-04-21T04:04:45.754Z,4.80
2019-04-21T04:07:42.554Z,4.70
2019-04-21T04:10:09.705Z,4.70
2019-04-21T04:12:38.145Z,4.70
2019-04-21T04:15:14.084Z,4.70
2019-04-21T04:17:40.451Z,4.70
2019-04-21T04:20:18.893Z,4.80
2019-04-21T04:22:56.462Z,4.80
2019-04-21T04:25:19.186Z,4.80
2019-04-21T04:28:04.747Z,4.80
2019-04-21T04:30:31.989Z,4.90
2019-04-21T04:32:59.339Z,5.00
2019-04-21T04:35:52.831Z,5.40
2019-04-21T04:38:20.124Z,5.90
2019-04-21T04:41:01.812Z,6.40
2019-04-21T04:46:03.805Z,7.50
2019-04-21T04:48:37.513Z,8.10
2019-04-21T04:51:03.231Z,8.70
2019-04-21T04:56:20.758Z,9.90
2019-04-21T04:59:20.248Z,10.50
2019-04-21T05:01:38.167Z,11.10
2019-04-21T05:04:20.445Z,11.70
2019-04-21T05:14:21.294Z,14.10
2019-04-21T05:17:15.661Z,14.60
2019-04-21T05:19:45.054Z,15.30
2019-04-21T05:22:04.935Z,15.80
2019-04-21T05:24:25.355Z,16.40
2019-04-21T05:26:53.576Z,17.00
2019-04-21T05:29:20.423Z,17.60
2019-04-21T05:32:20.061Z,18.30
2019-04-21T05:35:00.227Z,18.80
2019-04-21T05:37:31.711Z,19.50
2019-04-21T05:39:57.966Z,20.10
2019-04-21T05:42:39.642Z,20.60
2019-04-21T05:45:23.041Z,21.20
2019-04-21T05:47:55.867Z,21.90
2019-04-21T05:50:30.540Z,22.50
2019-04-21T05:52:58.792Z,23.00
2019-04-21T05:55:45.957Z,23.60
2019-04-21T05:58:08.358Z,24.20
2019-04-21T06:03:26.731Z,25.20
2019-04-21T06:06:00.467Z,25.60
2019-04-21T06:08:25.892Z,26.20
2019-04-21T06:11:00.198Z,26.80
2019-04-21T06:16:14.416Z,27.70
2019-04-21T06:18:53.274Z,28.20
2019-04-21T06:21:16.431Z,28.70
2019-04-21T06:23:47.891Z,29.40
2019-04-21T06:29:15.441Z,30.50
2019-04-21T06:32:13.951Z,30.90
2019-04-21T06:34:16.742Z,30.90
2019-04-21T06:37:01.661Z,30.60
2019-04-21T06:39:31.928Z,30.50
2019-04-21T06:41:58.510Z,30.70
2019-04-21T06:44:32.805Z,29.90
2019-04-21T06:47:10.618Z,29.70
2019-04-21T06:49:31.430Z,29.70
2019-04-21T06:52:29.985Z,29.30
2019-04-21T06:57:22.091Z,30.30
2019-04-21T06:59:43.511Z,31.30
2019-04-21T07:02:36.126Z,32.40
2019-04-21T07:04:54.754Z,33.50
2019-04-21T07:07:21.715Z,34.00
2019-04-21T07:10:01.391Z,33.70
2019-04-21T07:12:30.949Z,33.50
2019-04-21T07:15:04.270Z,33.60
2019-04-21T07:17:32.618Z,34.30
2019-04-21T07:20:07.194Z,35.20
2019-04-21T07:22:44.614Z,35.80
2019-04-21T07:25:18.230Z,36.10
2019-04-21T07:27:53.773Z,36.30
2019-04-21T07:30:32.757Z,36.00
2019-04-21T07:33:21.949Z,36.10
2019-04-21T07:35:53.467Z,36.60
2019-04-21T07:38:14.190Z,37.10
2019-04-21T07:40:38.892Z,37.40
2019-04-21T07:43:18.192Z,36.10
2019-04-21T07:45:50.141Z,35.00
2019-04-21T07:48:37.602Z,35.30
2019-04-21T07:51:31.596Z,36.10
2019-04-21T07:54:23.272Z,36.80
2019-04-21T07:56:20.283Z,37.10
2019-04-21T07:59:02.099Z,38.10
2019-04-21T08:01:48.404Z,39.00
2019-04-21T08:04:33.144Z,39.90
2019-04-21T08:06:52.054Z,40.80
2019-04-21T08:09:19.536Z,41.30
2019-04-21T08:11:52.206Z,41.30
2019-04-21T08:14:28.648Z,41.20
2019-04-21T08:19:31.226Z,41.50
2019-04-21T08:22:12.490Z,41.10
2019-04-21T08:24:42.119Z,41.20
2019-04-21T08:27:20.265Z,40.60
2019-04-21T08:29:58.222Z,40.10
2019-04-21T08:32:51.568Z,39.40
2019-04-21T08:35:34.643Z,39.10
2019-04-21T08:37:46.087Z,38.80
2019-04-21T08:40:34.131Z,39.30
2019-04-21T08:43:21.703Z,39.50
2019-04-21T08:48:02.745Z,39.70
2019-04-21T08:50:38.930Z,39.30
2019-04-21T08:53:21.622Z,38.40
2019-04-21T08:58:30.511Z,37.30
2019-04-21T09:01:15.748Z,38.30
2019-04-21T09:06:56.717Z,38.80
2019-04-21T09:09:10.885Z,38.30
2019-04-21T09:11:43.254Z,37.90
2019-04-21T09:14:13.875Z,37.70
2019-04-21T09:16:51.344Z,36.80
2019-04-21T09:19:38.724Z,36.00
2019-04-21T09:22:02.330Z,35.20
2019-04-21T09:24:33.437Z,34.70
2019-04-21T09:27:03.779Z,34.80
2019-04-21T09:29:34.563Z,35.30
2019-04-21T09:31:59.480Z,36.60
2019-04-21T09:34:36.940Z,37.50
2019-04-21T09:37:15.410Z,37.10
2019-04-21T09:39:41.871Z,37.30
2019-04-21T09:42:06.613Z,37.10
2019-04-21T09:44:43.653Z,35.60
2019-04-21T09:47:18.994Z,34.50
2019-04-21T09:49:49.459Z,33.50
2019-04-21T09:52:23.188Z,33.70
2019-04-21T09:55:03.952Z,34.80
2019-04-21T09:57:38.786Z,35.30
2019-04-21T10:00:15.067Z,35.30
2019-04-21T10:02:49.815Z,34.30
2019-04-21T10:05:09.976Z,33.30
2019-04-21T10:07:44.846Z,32.10
2019-04-21T10:10:19.235Z,32.40
2019-04-21T10:12:49.937Z,33.50
2019-04-21T10:15:19.123Z,34.40
2019-04-21T10:17:58.709Z,34.30
2019-04-21T10:20:28.834Z,33.90
2019-04-21T10:23:03.028Z,34.20
2019-04-21T10:25:42.766Z,34.60
2019-04-21T10:28:07.538Z,35.60
2019-04-21T10:30:42.613Z,35.50
2019-04-21T10:33:16.927Z,34.80
2019-04-21T10:35:47.325Z,34.20
2019-04-21T10:38:28.248Z,33.00
2019-04-21T10:40:51.758Z,32.30
2019-04-21T10:43:22.289Z,32.30
2019-04-21T10:45:50.768Z,31.50
2019-04-21T10:48:21.021Z,31.40
2019-04-21T10:50:52.810Z,31.10
2019-04-21T10:53:23.066Z,30.80
2019-04-21T10:56:11.431Z,30.30
2019-04-21T10:58:34.363Z,30.20
2019-04-21T11:01:14.234Z,30.00
2019-04-21T11:03:53.156Z,30.40
2019-04-21T11:06:28.740Z,30.60
2019-04-21T11:08:57.899Z,30.70
2019-04-21T11:11:30.487Z,30.90
2019-04-21T11:14:02.442Z,30.20
2019-04-21T11:16:33.206Z,29.80
2019-04-21T11:19:04.043Z,29.50
2019-04-21T11:21:36.766Z,29.20
2019-04-21T11:24:06.028Z,29.10
2019-04-21T11:26:35.812Z,29.60
2019-04-21T11:29:12.927Z,29.70
2019-04-21T11:31:41.430Z,29.20
2019-04-21T11:34:11.219Z,28.60
2019-04-21T11:36:46.029Z,28.20
2019-04-21T11:39:29.222Z,27.70
2019-04-21T11:41:55.399Z,27.60
2019-04-21T11:44:27.158Z,27.20
2019-04-21T11:46:58.529Z,27.10
2019-04-21T11:49:30.224Z,27.10
2019-04-21T11:51:58.832Z,26.80
2019-04-21T11:54:30.960Z,26.40
2019-04-21T11:57:12.373Z,26.00
2019-04-21T11:59:43.857Z,26.00
2019-04-21T12:02:15.155Z,26.60
2019-04-21T12:04:49.541Z,27.20
2019-04-21T12:07:20.890Z,27.10
2019-04-21T12:09:55.515Z,25.90
2019-04-21T12:12:25.322Z,25.60
2019-04-21T12:14:54.247Z,25.70
2019-04-21T12:17:28.226Z,26.00
2019-04-21T12:20:06.470Z,26.40
2019-04-21T12:22:39.089Z,26.60
2019-04-21T12:25:09.450Z,26.50
2019-04-21T12:27:38.045Z,25.80
2019-04-21T12:30:19.872Z,25.20
2019-04-21T12:33:06.128Z,24.50
2019-04-21T12:35:37.770Z,24.10
2019-04-21T12:38:08.920Z,24.30
2019-04-21T12:40:40.725Z,24.50
2019-04-21T12:43:18.790Z,24.50
2019-04-21T12:45:47.666Z,24.50
2019-04-21T12:48:18.018Z,24.30
2019-04-21T12:50:55.411Z,24.00
2019-04-21T12:53:23.832Z,23.40
2019-04-21T12:55:57.875Z,23.00
2019-04-21T12:58:29.308Z,22.90
2019-04-21T13:00:58.936Z,22.80
2019-04-21T13:03:39.707Z,22.70
2019-04-21T13:06:09.731Z,22.60
2019-04-21T13:08:57.885Z,22.40
2019-04-21T13:11:23.275Z,22.20
2019-04-21T13:14:09.608Z,21.90
2019-04-21T13:16:43.399Z,21.70
2019-04-21T13:19:13.123Z,21.70
2019-04-21T13:21:45.757Z,21.50
2019-04-21T13:24:22.071Z,21.30
2019-04-21T13:27:01.570Z,21.20
2019-04-21T13:29:36.774Z,21.00
2019-04-21T13:32:08.888Z,21.00
2019-04-21T13:34:50.931Z,21.00
2019-04-21T13:37:11.828Z,21.00
2019-04-21T13:40:09.102Z,21.00
2019-04-21T13:42:38.333Z,21.00
2019-04-21T13:45:04.855Z,20.80
2019-04-21T13:47:36.797Z,20.60
2019-04-21T13:50:08.729Z,20.50
2019-04-21T13:52:38.646Z,20.50
2019-04-21T13:55:09.641Z,20.60
2019-04-21T13:57:48.255Z,20.60
2019-04-21T14:00:17.434Z,20.50
2019-04-21T14:02:50.021Z,20.50
2019-04-21T14:05:18.505Z,20.40
2019-04-21T14:07:48.589Z,20.50
2019-04-21T14:10:17.895Z,20.60
2019-04-21T14:12:48.772Z,20.60
2019-04-21T14:15:22.514Z,20.60
2019-04-21T14:17:54.807Z,20.60
2019-04-21T14:20:25.329Z,20.50
2019-04-21T14:22:54.010Z,20.50
2019-04-21T14:25:23.786Z,20.60
2019-04-21T14:27:55.708Z,20.60
2019-04-21T14:30:28.454Z,20.60
2019-04-21T14:33:02.653Z,20.50
2019-04-21T14:35:41.015Z,20.40
2019-04-21T14:38:22.773Z,20.40
2019-04-21T14:40:54.387Z,20.30
2019-04-21T14:43:25.854Z,20.30
2019-04-21T14:46:04.843Z,20.40
2019-04-21T14:48:43.734Z,20.40
2019-04-21T14:51:31.476Z,20.40
2019-04-21T14:54:01.805Z,20.40
2019-04-21T14:56:31.293Z,20.40
2019-04-21T14:59:01.352Z,20.40
2019-04-21T15:01:33.738Z,20.40
2019-04-21T15:04:07.987Z,20.40
2019-04-21T15:06:37.115Z,20.40
2019-04-21T15:09:13.375Z,20.40
2019-04-21T15:11:42.231Z,20.40
2019-04-21T15:14:13.848Z,20.40
2019-04-21T15:16:42.826Z,20.40
2019-04-21T15:19:17.295Z,20.30
2019-04-21T15:21:48.134Z,20.40
2019-04-21T15:24:18.305Z,20.40
2019-04-21T15:26:52.735Z,20.40
2019-04-21T15:29:22.540Z,20.30
2019-04-21T15:31:54.630Z,20.30
2019-04-21T15:34:25.917Z,20.20
2019-04-21T15:36:53.798Z,20.20
2019-04-21T15:39:28.095Z,20.20
2019-04-21T15:42:00.441Z,20.10
2019-04-21T15:44:30.483Z,20.00
2019-04-21T15:46:59.777Z,20.00
2019-04-21T15:49:40.543Z,20.00
2019-04-21T15:52:04.199Z,20.00
2019-04-21T15:54:32.858Z,20.00
2019-04-21T15:57:06.871Z,20.00
2019-04-21T15:59:54.918Z,20.10
2019-04-21T16:02:42.517Z,20.10
2019-04-21T16:05:16.992Z,20.10
2019-04-21T16:07:49.888Z,20.10
2019-04-21T16:10:34.354Z,20.10
2019-04-21T16:12:53.841Z,20.00
2019-04-21T16:15:26.299Z,19.90
2019-04-21T16:17:57.207Z,19.80
2019-04-21T16:20:25.981Z,19.80
2019-04-21T16:22:54.912Z,19.80
2019-04-21T16:25:23.914Z,19.80
2019-04-21T16:27:55.309Z,19.90
2019-04-21T16:30:25.998Z,19.80
2019-04-21T16:32:54.827Z,19.80
2019-04-21T16:35:26.718Z,19.80
2019-04-21T16:37:59.460Z,19.80
2019-04-21T16:40:39.755Z,19.80
2019-04-21T16:42:58.463Z,19.70
2019-04-21T16:45:30.698Z,19.70
2019-04-21T16:48:03.425Z,19.60
2019-04-21T16:50:31.930Z,19.50
2019-04-21T16:53:08.298Z,19.50
2019-04-21T16:55:51.018Z,19.50
2019-04-21T16:58:36.705Z,19.50
2019-04-21T17:01:16.352Z,19.40
2019-04-21T17:03:44.419Z,19.40
2019-04-21T17:06:17.262Z,19.40
2019-04-21T17:08:47.522Z,19.30
2019-04-21T17:11:20.706Z,19.30
2019-04-21T17:13:49.980Z,19.20
2019-04-21T17:19:00.588Z,19.10
2019-04-21T17:21:30.150Z,19.10
2019-04-21T17:24:08.340Z,19.00
2019-04-21T17:26:39.394Z,19.00
2019-04-21T17:29:10.271Z,18.90
2019-04-21T17:31:41.433Z,18.80
2019-04-21T17:34:17.992Z,18.70
2019-04-21T17:36:47.274Z,18.70
2019-04-21T17:39:22.859Z,18.60
2019-04-21T17:42:05.542Z,18.50
2019-04-21T17:44:27.737Z,18.50
2019-04-21T17:47:05.244Z,18.40
2019-04-21T17:49:32.971Z,18.30
2019-04-21T17:52:09.807Z,18.10
2019-04-21T17:54:46.904Z,17.90
2019-04-21T17:57:36.769Z,17.70
2019-04-21T18:00:04.200Z,17.50
2019-04-21T18:02:36.753Z,17.40
2019-04-21T18:05:08.599Z,17.20
2019-04-21T18:07:47.342Z,17.00
2019-04-21T18:10:11.460Z,16.80
2019-04-21T18:12:39.983Z,16.60
2019-04-21T18:15:16.715Z,16.40
2019-04-21T18:17:29.835Z,16.20
2019-04-21T18:19:59.685Z,16.00
2019-04-21T18:22:37.089Z,15.90
2019-04-21T18:25:06.766Z,15.70
2019-04-21T18:27:36.642Z,15.50
2019-04-21T18:30:26.455Z,15.30
2019-04-21T18:32:57.920Z,15.20
2019-04-21T18:35:29.315Z,15.00
2019-04-21T18:38:08.134Z,14.90
2019-04-21T18:40:36.403Z,14.70
2019-04-21T18:43:43.736Z,14.60
2019-04-21T18:46:29.495Z,14.50
2019-04-21T18:48:44.712Z,14.30
2019-04-21T18:51:19.224Z,14.20
2019-04-21T18:54:22.548Z,14.00
2019-04-21T18:56:51.382Z,13.90
2019-04-21T18:59:12.223Z,13.80
2019-04-21T19:01:51.463Z,13.70
2019-04-21T19:04:20.535Z,13.60
2019-04-21T19:07:03.009Z,13.50
2019-04-21T19:09:47.379Z,13.40
2019-04-21T19:12:10.193Z,13.20
2019-04-21T19:14:50.834Z,13.20
2019-04-21T19:20:02.626Z,13.00
2019-04-21T19:22:15.592Z,12.90
2019-04-21T19:24:49.034Z,12.80
2019-04-21T19:27:22.695Z,12.80
2019-04-21T19:32:28.922Z,12.60
2019-04-21T19:34:49.321Z,12.50
2019-04-21T19:37:20.446Z,12.30
2019-04-21T19:40:00.471Z,12.30
2019-04-21T19:42:30.705Z,12.20
2019-04-21T19:45:06.127Z,12.10
2019-04-21T19:47:42.269Z,12.10
2019-04-21T19:50:05.932Z,12.00
2019-04-21T19:52:34.055Z,11.90
2019-04-21T19:54:52.615Z,11.90
2019-04-21T19:57:29.531Z,11.80
2019-04-21T20:00:04.281Z,11.70
2019-04-21T20:02:38.426Z,11.60
2019-04-21T20:05:20.473Z,11.60
2019-04-21T20:08:01.363Z,11.50
2019-04-21T20:10:33.375Z,11.40
2019-04-21T20:13:07.840Z,11.40
2019-04-21T20:15:41.992Z,11.30
2019-04-21T20:18:06.245Z,11.20
2019-04-21T20:20:22.887Z,11.20
2019-04-21T20:22:57.473Z,11.10
2019-04-21T20:25:29.062Z,11.00
2019-04-21T20:28:14.745Z,11.00
2019-04-21T20:30:58.395Z,10.90
2019-04-21T20:33:49.239Z,10.90
2019-04-21T20:36:01.396Z,10.80
2019-04-21T20:38:24.762Z,10.80
2019-04-21T20:40:52.639Z,10.70
2019-04-21T20:43:38.725Z,10.60
2019-04-21T20:46:03.682Z,10.50
2019-04-21T20:48:34.496Z,10.40
2019-04-21T20:51:18.306Z,10.40
2019-04-21T20:53:47.797Z,10.40
2019-04-21T20:56:13.075Z,10.30
2019-04-21T20:58:55.476Z,10.20
2019-04-21T21:04:02.406Z,10.10
2019-04-21T21:06:38.529Z,10.00
2019-04-21T21:09:10.398Z,9.90
2019-04-21T21:11:56.774Z,9.90
2019-04-21T21:14:23.183Z,9.80
2019-04-21T21:16:58.122Z,9.80
2019-04-21T21:19:30.167Z,9.70
2019-04-21T21:21:53.992Z,9.60
2019-04-21T21:24:36.408Z,9.50
2019-04-21T21:27:05.681Z,9.50
2019-04-21T21:29:33.632Z,9.40
2019-04-21T21:32:14.997Z,9.40
2019-04-21T21:34:41.186Z,9.30
2019-04-21T21:37:12.921Z,9.30
2019-04-21T21:39:57.292Z,9.30
2019-04-21T21:42:08.030Z,9.20
2019-04-21T21:44:40.737Z,9.10
2019-04-21T21:47:24.142Z,9.10
2019-04-21T21:49:52.875Z,9.00
2019-04-21T21:52:25.921Z,9.00
2019-04-21T21:54:45.648Z,8.90
2019-04-21T21:57:16.864Z,8.90
2019-04-21T21:59:58.881Z,8.80
2019-04-21T22:02:33.494Z,8.80
2019-04-21T22:05:01.393Z,8.70
2019-04-21T22:07:35.150Z,8.60
2019-04-21T22:10:06.440Z,8.60
2019-04-21T22:12:44.870Z,8.50
2019-04-21T22:15:14.632Z,8.50
2019-04-21T22:17:53.998Z,8.40
2019-04-21T22:20:40.122Z,8.40
2019-04-21T22:22:57.530Z,8.40
2019-04-21T22:25:26.893Z,8.40
2019-04-21T22:27:55.650Z,8.30
2019-04-21T22:30:32.830Z,8.30
2019-04-21T22:33:10.833Z,8.20
2019-04-21T22:35:45.317Z,8.20
2019-04-21T22:38:26.996Z,8.10
2019-04-21T22:41:19.226Z,8.10
2019-04-21T22:43:44.543Z,8.00
2019-04-21T22:46:15.484Z,8.00
2019-04-21T22:48:47.678Z,8.00
2019-04-21T22:51:20.610Z,7.90
2019-04-21T22:53:49.936Z,7.90
2019-04-21T22:56:23.596Z,7.80
2019-04-21T22:58:55.015Z,7.80
2019-04-21T23:01:33.713Z,7.80
2019-04-21T23:04:02.448Z,7.70
2019-04-21T23:06:35.684Z,7.70
2019-04-21T23:09:12.897Z,7.70
2019-04-21T23:11:46.985Z,7.60
2019-04-21T23:14:17.038Z,7.60
2019-04-21T23:16:45.977Z,7.50
2019-04-21T23:19:29.349Z,7.50
2019-04-21T23:22:04.213Z,7.40
2019-04-21T23:24:42.174Z,7.40
2019-04-21T23:27:05.947Z,7.40
2019-04-21T23:29:47.566Z,7.40
2019-04-21T23:32:14.901Z,7.30
2019-04-21T23:34:36.773Z,7.30
2019-04-21T23:37:14.185Z,7.30
2019-04-21T23:39:37.637Z,7.20
2019-04-21T23:42:09.188Z,7.10
2019-04-21T23:44:45.542Z,7.10
2019-04-21T23:47:30.338Z,7.00
2019-04-21T23:49:53.139Z,7.10
2019-04-21T23:52:21.780Z,7.00
2019-04-21T23:54:56.310Z,7.00
2019-04-21T23:57:35.338Z,6.90
